Terminal Aerodrome Forecast
Issued by NWS

Home | Current Version | Previous Version | Text Only | Print | Product List | Glossary On
Versions: 1 2 3 4 5 6 7 8 9 10 11 12 13 14 15 16 17 18 19 20 21 22 23 24 25 26 27 28 29 30 31 32 33 34 35 36 37 38 39
479
FTUS46 KLOX 260523
TAFSBA
TAF
KSBA 260523Z 2606/2706 VRB03KT P6SM SKC
     FM261100 VRB03KT 5SM BR OVC008
     FM261600 17005KT 6SM BR BKN012
     FM261900 22007KT P6SM SCT250
     FM270200 VRB03KT P6SM SCT250 WS010/34030KT=

USA.gov is the U.S. government's official web portal to all federal, state and local government web resources and services.